createdAt,value
2022-12-23T00:02:10.878Z,151191.59
2022-12-23T00:04:43.690Z,151187.72
2022-12-23T00:07:13.891Z,151183.84
2022-12-23T00:09:44.090Z,151180.03
2022-12-23T00:12:26.502Z,151165.84
2022-12-23T00:15:09.020Z,151172.28
2022-12-23T00:17:43.860Z,151156.84
2022-12-23T00:20:19.252Z,151163.25
2022-12-23T00:23:01.850Z,151171.00
2022-12-23T00:25:45.059Z,151163.25
2022-12-23T00:28:17.718Z,151164.53
2022-12-23T00:30:49.798Z,151151.69
2022-12-23T00:33:22.641Z,151152.97
2022-12-23T00:35:56.022Z,151146.53
2022-12-23T00:38:38.697Z,151142.66
2022-12-23T00:41:21.866Z,151145.22
2022-12-23T00:43:52.420Z,151138.78
2022-12-23T00:46:22.516Z,151138.78
2022-12-23T00:49:05.002Z,151129.78
2022-12-23T00:51:37.794Z,151115.59
2022-12-23T00:54:08.426Z,151116.94
2022-12-23T00:56:38.765Z,151110.47
2022-12-23T00:59:09.517Z,151110.47
2022-12-23T01:01:52.226Z,151107.91
2022-12-23T01:04:35.682Z,151111.78
2022-12-23T01:07:09.595Z,151104.03
2022-12-23T01:09:39.656Z,151089.88
2022-12-23T01:12:10.423Z,151091.16
2022-12-23T01:14:41.180Z,151086.00
2022-12-23T01:17:12.059Z,151074.44
2022-12-23T01:19:42.323Z,151060.25
2022-12-23T01:22:14.987Z,151056.41
2022-12-23T01:24:45.043Z,151048.69
2022-12-23T01:27:15.361Z,151038.41
2022-12-23T01:29:45.589Z,151035.81
2022-12-23T01:32:15.740Z,151025.50
2022-12-23T01:34:45.863Z,151020.38
2022-12-23T01:37:18.846Z,151017.81
2022-12-23T01:39:49.105Z,151007.47
2022-12-23T01:42:34.301Z,151003.66
2022-12-23T01:45:05.504Z,151007.47
2022-12-23T01:47:40.753Z,150990.78
2022-12-23T01:50:15.982Z,150988.22
2022-12-23T01:52:53.705Z,150988.22
2022-12-23T01:55:28.265Z,150985.63
2022-12-23T01:58:03.534Z,150977.88
2022-12-23T02:01:04.128Z,150980.47
2022-12-23T02:03:46.800Z,150975.34
2022-12-23T02:06:35.302Z,150979.19
2022-12-23T02:09:20.552Z,150965.03
2022-12-23T02:12:28.558Z,150931.56
2022-12-23T02:15:41.932Z,150932.84
2022-12-23T02:18:42.261Z,150939.31
2022-12-23T02:21:30.603Z,150934.16
2022-12-23T02:24:45.085Z,150936.72
2022-12-23T02:27:30.158Z,150941.88
2022-12-23T02:30:42.477Z,150930.31
2022-12-23T02:33:35.546Z,150939.31
2022-12-23T02:36:21.235Z,150930.31
2022-12-23T02:39:02.560Z,150934.16
2022-12-23T02:41:40.367Z,150925.16
2022-12-23T02:44:20.343Z,150912.28
2022-12-23T02:46:55.136Z,150909.72
2022-12-23T02:49:33.564Z,150904.59
2022-12-23T02:52:08.256Z,150864.66
2022-12-23T02:54:44.049Z,150856.97
2022-12-23T02:57:16.535Z,150845.34
2022-12-23T02:59:51.560Z,150836.41
2022-12-23T03:02:21.998Z,150842.81
2022-12-23T03:04:54.989Z,150823.50
2022-12-23T03:07:33.197Z,150823.50
2022-12-23T03:10:11.468Z,150824.78
2022-12-23T03:12:54.469Z,150809.34
2022-12-23T03:15:40.403Z,150813.22
2022-12-23T03:18:21.676Z,150820.97
2022-12-23T03:20:57.793Z,150819.63
2022-12-23T03:23:32.671Z,150809.34
2022-12-23T03:26:07.260Z,150810.63
2022-12-23T03:28:43.431Z,150824.78
2022-12-23T03:31:17.895Z,150826.09
2022-12-23T03:33:52.682Z,150824.78
2022-12-23T03:36:28.140Z,150833.78
2022-12-23T03:39:00.430Z,150826.09
2022-12-23T03:41:34.553Z,150820.97
2022-12-23T03:44:08.614Z,150827.38
2022-12-23T03:46:43.277Z,150822.25
2022-12-23T03:49:19.291Z,150817.09
2022-12-23T03:51:57.474Z,150797.81
2022-12-23T03:54:34.813Z,150797.81
2022-12-23T03:57:08.566Z,150806.81
2022-12-23T03:59:42.217Z,150788.78
2022-12-23T04:02:19.192Z,150782.38
2022-12-23T04:05:04.278Z,150774.63
2022-12-23T04:07:41.729Z,150765.63
2022-12-23T04:10:13.566Z,150756.63
2022-12-23T04:12:44.271Z,150746.31
2022-12-23T04:15:14.890Z,150746.31
2022-12-23T04:17:45.077Z,150751.47
2022-12-23T04:20:15.545Z,150736.03
2022-12-23T04:22:48.544Z,150732.19
2022-12-23T04:25:20.115Z,150712.94
2022-12-23T04:27:50.227Z,150714.22
2022-12-23T04:30:20.722Z,150710.34
2022-12-23T04:32:51.193Z,150719.34
2022-12-23T04:35:21.608Z,150701.34
2022-12-23T04:37:54.298Z,150697.47
2022-12-23T04:40:24.499Z,150697.47
2022-12-23T04:42:54.594Z,150702.59
2022-12-23T04:45:26.899Z,150691.06
2022-12-23T04:47:57.839Z,150698.78
2022-12-23T04:50:27.865Z,150683.38
2022-12-23T04:53:00.672Z,150694.91
2022-12-23T04:55:30.867Z,150680.78
2022-12-23T04:58:01.277Z,150662.75
2022-12-23T05:00:39.127Z,150661.47
2022-12-23T05:03:10.467Z,150670.50
2022-12-23T05:05:46.129Z,150675.63
2022-12-23T05:08:19.041Z,150671.75
2022-12-23T05:10:49.099Z,150669.22
2022-12-23T05:13:19.398Z,150656.34
2022-12-23T05:15:51.976Z,150661.47
2022-12-23T05:18:23.531Z,150669.22
2022-12-23T05:20:54.143Z,150680.78
2022-12-23T05:23:31.571Z,150675.63
2022-12-23T05:26:02.164Z,150680.78
2022-12-23T05:28:35.589Z,150688.50
2022-12-23T05:31:07.907Z,150693.66
2022-12-23T05:33:38.793Z,150693.66
2022-12-23T05:36:09.963Z,150696.19
2022-12-23T05:38:42.613Z,150703.94
2022-12-23T05:41:12.775Z,150706.47
2022-12-23T05:43:43.031Z,150709.06
2022-12-23T05:46:13.179Z,150709.06
2022-12-23T05:48:43.896Z,150705.19
2022-12-23T05:51:18.481Z,150707.75
2022-12-23T05:53:54.979Z,150707.75
2022-12-23T05:56:44.823Z,150715.47
2022-12-23T05:59:15.882Z,150714.22
2022-12-23T06:01:51.463Z,150715.47
2022-12-23T06:04:26.371Z,150715.47
2022-12-23T06:06:57.045Z,150720.63
2022-12-23T06:09:31.562Z,150716.75
2022-12-23T06:12:01.845Z,150720.63
2022-12-23T06:14:38.588Z,150719.34
2022-12-23T06:17:12.530Z,150715.47
2022-12-23T06:19:42.920Z,150718.06
2022-12-23T06:22:14.383Z,150715.47
2022-12-23T06:24:49.640Z,150712.94
2022-12-23T06:27:21.753Z,150711.63
2022-12-23T06:29:52.170Z,150718.06
2022-12-23T06:32:23.732Z,150696.19
2022-12-23T06:34:53.827Z,150701.34
2022-12-23T06:37:24.190Z,150694.91
2022-12-23T06:39:56.994Z,150675.63
2022-12-23T06:42:27.123Z,150669.22
2022-12-23T06:44:57.215Z,150658.94
2022-12-23T06:47:27.297Z,150629.38
2022-12-23T06:49:57.837Z,150621.63
2022-12-23T06:52:27.948Z,150604.94
2022-12-23T06:55:00.763Z,150588.22
2022-12-23T06:57:30.748Z,150509.81
2022-12-23T07:00:00.795Z,150521.41
2022-12-23T07:02:30.978Z,150525.22
2022-12-23T07:05:01.159Z,150557.38
2022-12-23T07:07:32.343Z,150522.69
2022-12-23T07:10:08.643Z,150544.50
2022-12-23T07:12:38.901Z,150585.66
2022-12-23T07:15:12.569Z,150592.06
2022-12-23T07:17:43.948Z,150572.78
2022-12-23T07:20:17.047Z,150599.75
2022-12-23T07:22:47.909Z,150557.38
2022-12-23T07:25:25.003Z,150597.22
2022-12-23T07:27:56.962Z,150634.50
2022-12-23T07:30:29.459Z,150637.06
2022-12-23T07:32:59.887Z,150644.78
2022-12-23T07:35:31.552Z,150655.06
2022-12-23T07:38:01.832Z,150689.78
2022-12-23T07:40:35.564Z,150707.75
2022-12-23T07:43:06.221Z,150733.50
2022-12-23T07:45:38.005Z,150742.50
2022-12-23T07:48:09.751Z,150745.06
2022-12-23T07:50:39.857Z,150783.66
2022-12-23T07:53:12.570Z,150799.06
2022-12-23T07:55:49.112Z,150808.09
2022-12-23T07:58:24.873Z,150797.81
2022-12-23T08:01:03.547Z,150823.50
2022-12-23T08:03:34.947Z,150849.22
2022-12-23T08:06:11.331Z,150828.66
2022-12-23T08:08:43.784Z,150813.22
2022-12-23T08:11:18.596Z,150820.97
2022-12-23T08:13:49.770Z,150815.78
2022-12-23T08:16:23.330Z,150828.66
2022-12-23T08:18:55.040Z,150832.53
2022-12-23T08:21:26.155Z,150850.53
2022-12-23T08:23:59.641Z,150856.97
2022-12-23T08:26:32.462Z,150882.69
2022-12-23T08:29:04.059Z,150896.84
2022-12-23T08:31:34.851Z,150917.41
2022-12-23T08:34:06.009Z,150957.31
2022-12-23T08:36:40.097Z,151007.47
2022-12-23T08:39:13.557Z,151056.41
2022-12-23T08:41:52.164Z,151100.16
2022-12-23T08:44:22.259Z,151128.50
2022-12-23T08:46:52.963Z,151141.41
2022-12-23T08:49:24.143Z,151154.25
2022-12-23T08:51:55.013Z,151164.53
2022-12-23T08:54:27.243Z,151163.25
2022-12-23T08:56:59.933Z,151176.16
2022-12-23T08:59:30.839Z,151177.44
2022-12-23T09:02:03.578Z,151205.78
2022-12-23T09:04:33.936Z,151209.66
2022-12-23T09:07:04.893Z,151221.22
2022-12-23T09:09:36.627Z,151228.91
2022-12-23T09:12:12.115Z,151227.66
2022-12-23T09:14:43.338Z,151241.81
2022-12-23T09:17:13.927Z,151283.03
2022-12-23T09:19:52.286Z,151308.81
2022-12-23T09:22:23.917Z,151352.63
2022-12-23T09:25:05.549Z,151353.91
2022-12-23T09:27:49.056Z,151355.19
2022-12-23T09:30:25.479Z,151378.38
2022-12-23T09:32:57.036Z,151374.50
2022-12-23T09:35:27.926Z,151380.94
2022-12-23T09:38:01.989Z,151389.97
2022-12-23T09:40:36.173Z,151395.13
2022-12-23T09:43:20.533Z,151409.28
2022-12-23T09:46:07.304Z,151435.06
2022-12-23T09:48:47.116Z,151445.34
2022-12-23T09:51:25.548Z,151420.88
2022-12-23T09:54:02.669Z,151420.88
2022-12-23T09:56:41.263Z,151453.13
2022-12-23T09:59:27.584Z,151486.63
2022-12-23T10:02:07.292Z,151515.00
2022-12-23T10:04:48.786Z,151534.28
2022-12-23T10:07:32.708Z,151564.00
2022-12-23T10:10:14.829Z,151598.81
2022-12-23T10:12:50.104Z,151615.53
2022-12-23T10:15:37.404Z,151647.81
2022-12-23T10:18:16.949Z,151660.66
2022-12-23T10:21:02.998Z,151676.13
2022-12-23T10:23:44.362Z,151682.63
2022-12-23T10:26:28.228Z,151705.81
2022-12-23T10:29:07.592Z,151722.59
2022-12-23T10:32:05.405Z,151745.78
2022-12-23T10:34:49.609Z,151736.78
2022-12-23T10:37:24.612Z,151745.78
2022-12-23T10:40:12.969Z,151729.03
2022-12-23T10:42:52.069Z,151731.63
2022-12-23T10:46:06.120Z,151725.16
2022-12-23T10:48:58.058Z,151739.34
2022-12-23T10:51:35.681Z,151704.53
2022-12-23T10:54:11.730Z,151717.44
2022-12-23T10:56:41.986Z,151759.97
2022-12-23T10:59:18.019Z,151776.78
2022-12-23T11:01:57.308Z,151799.97
2022-12-23T11:04:37.012Z,151824.47
2022-12-23T11:07:42.901Z,151854.22
2022-12-23T11:10:04.478Z,151896.81
2022-12-23T11:12:42.470Z,151923.94
2022-12-23T11:15:35.382Z,151954.91
2022-12-23T11:18:13.082Z,151987.13
2022-12-23T11:20:49.784Z,151985.88
2022-12-23T11:23:27.896Z,151984.59
2022-12-23T11:26:07.596Z,152006.50
2022-12-23T11:28:40.604Z,152029.75
2022-12-23T11:31:14.668Z,152028.47
2022-12-23T11:33:52.204Z,152031.03
2022-12-23T11:36:27.933Z,152074.94
2022-12-23T11:39:06.123Z,152037.53
2022-12-23T11:41:40.725Z,152072.38
2022-12-23T11:44:22.590Z,152076.22
2022-12-23T11:46:55.759Z,152087.88
2022-12-23T11:49:27.847Z,152107.25
2022-12-23T11:52:15.787Z,152138.22
2022-12-23T11:54:55.007Z,152164.03
2022-12-23T11:57:30.511Z,152178.25
2022-12-23T12:00:04.594Z,152193.75
2022-12-23T12:02:39.396Z,152209.25
2022-12-23T12:05:23.092Z,152233.78
2022-12-23T12:08:01.758Z,152264.84
2022-12-23T12:10:36.323Z,152275.16
2022-12-23T12:13:09.140Z,152302.28
2022-12-23T12:15:47.465Z,152315.22
2022-12-23T12:18:22.495Z,152324.25
2022-12-23T12:20:56.883Z,152342.31
2022-12-23T12:23:33.306Z,152342.31
2022-12-23T12:26:06.583Z,152363.03
2022-12-23T12:28:41.695Z,152383.69
2022-12-23T12:31:23.317Z,152409.53
2022-12-23T12:34:01.057Z,152425.03
2022-12-23T12:36:41.411Z,152444.44
2022-12-23T12:39:21.280Z,152488.44
2022-12-23T12:42:00.151Z,152491.00
2022-12-23T12:44:44.565Z,152551.81
2022-12-23T12:50:19.183Z,152594.44
2022-12-23T12:52:49.925Z,152610.00
2022-12-23T12:55:29.504Z,152673.34
2022-12-23T12:58:00.177Z,152703.09
2022-12-23T13:00:32.854Z,152699.25
2022-12-23T13:03:25.091Z,152722.50
2022-12-23T13:06:15.155Z,152712.16
2022-12-23T13:09:00.606Z,152739.34
2022-12-23T13:11:45.437Z,152712.16
2022-12-23T13:14:34.185Z,152682.41
2022-12-23T13:17:15.802Z,152665.59
2022-12-23T13:19:54.066Z,152647.47
2022-12-23T13:22:31.276Z,152659.09
2022-12-23T13:25:07.828Z,152648.75
2022-12-23T13:27:47.358Z,152643.59
2022-12-23T13:30:21.923Z,152620.34
2022-12-23T13:33:10.987Z,152589.28
2022-12-23T13:36:18.603Z,152518.19
2022-12-23T13:39:01.965Z,152487.16
2022-12-23T13:41:36.053Z,152488.44
2022-12-23T13:44:13.652Z,152474.22
2022-12-23T13:46:55.216Z,152461.22
2022-12-23T13:49:35.900Z,152377.22
2022-12-23T13:52:13.680Z,152258.34
2022-12-23T13:54:58.459Z,152148.56
2022-12-23T13:57:46.762Z,151938.09
2022-12-23T14:00:34.009Z,151830.97
2022-12-23T14:03:27.349Z,151717.44
2022-12-23T14:05:58.306Z,151658.13
2022-12-23T14:08:34.547Z,151637.44
2022-12-23T14:11:13.729Z,151602.63
2022-12-23T14:13:47.030Z,151632.28
2022-12-23T14:16:38.049Z,151614.25
2022-12-23T14:19:36.465Z,151631.00
2022-12-23T14:22:25.910Z,151610.38
2022-12-23T14:25:37.085Z,151575.56
2022-12-23T14:28:24.084Z,151596.19
2022-12-23T14:30:55.931Z,151606.50
2022-12-23T14:33:34.454Z,151612.94
2022-12-23T14:36:25.245Z,151601.34
2022-12-23T14:39:25.569Z,151606.50
2022-12-23T14:42:03.404Z,151597.47
2022-12-23T14:44:54.208Z,151570.44
2022-12-23T14:47:40.384Z,151576.84
2022-12-23T14:50:44.099Z,151557.50
2022-12-23T14:53:27.245Z,151572.97
2022-12-23T14:56:26.669Z,151566.53
2022-12-23T14:59:15.342Z,151562.66
2022-12-23T15:01:51.010Z,151565.28
2022-12-23T15:04:25.437Z,151564.00
2022-12-23T15:07:02.746Z,151566.53
2022-12-23T15:09:35.607Z,151571.69
2022-12-23T15:12:15.749Z,151562.66
2022-12-23T15:14:50.102Z,151536.91
2022-12-23T15:17:26.904Z,151551.09
2022-12-23T15:20:05.252Z,151536.91
2022-12-23T15:22:38.084Z,151533.03
2022-12-23T15:25:21.456Z,151538.16
2022-12-23T15:27:57.323Z,151525.31
2022-12-23T15:30:37.152Z,151530.47
2022-12-23T15:33:34.860Z,151534.28
2022-12-23T15:36:05.077Z,151539.50
2022-12-23T15:38:41.500Z,151548.47
2022-12-23T15:41:18.813Z,151542.06
2022-12-23T15:43:48.990Z,151530.47
2022-12-23T15:46:28.749Z,151543.31
2022-12-23T15:49:00.166Z,151521.44
2022-12-23T15:52:07.085Z,151515.00
2022-12-23T15:54:33.342Z,151512.41
2022-12-23T15:57:05.386Z,151502.09
2022-12-23T15:59:39.570Z,151496.94
2022-12-23T16:02:49.728Z,151498.22
2022-12-23T16:05:05.898Z,151484.03
2022-12-23T16:07:37.869Z,151487.91
2022-12-23T16:10:16.965Z,151484.03
2022-12-23T16:12:47.659Z,151475.00
2022-12-23T16:15:25.784Z,151485.34
2022-12-23T16:18:13.889Z,151482.75
2022-12-23T16:20:46.610Z,151484.03
2022-12-23T16:23:17.499Z,151475.00
2022-12-23T16:25:54.443Z,151487.91
2022-12-23T16:28:29.738Z,151473.72
2022-12-23T16:31:01.662Z,151487.91
2022-12-23T16:33:39.888Z,151490.50
2022-12-23T16:36:22.020Z,151487.91
2022-12-23T16:38:53.651Z,151480.22
2022-12-23T16:41:26.560Z,151472.44
2022-12-23T16:43:56.646Z,151463.41
2022-12-23T16:46:29.286Z,151444.09
2022-12-23T16:49:05.097Z,151426.06
2022-12-23T16:51:36.674Z,151427.34
2022-12-23T16:54:07.126Z,151420.88
2022-12-23T16:56:40.927Z,151413.16
2022-12-23T16:59:11.433Z,151392.56
2022-12-23T17:01:43.550Z,151389.97
2022-12-23T17:04:13.940Z,151383.53
2022-12-23T17:06:46.708Z,151370.63
2022-12-23T17:09:16.825Z,151359.06
2022-12-23T17:11:51.766Z,151343.59
2022-12-23T17:14:23.460Z,151335.84
2022-12-23T17:16:54.404Z,151323.00
2022-12-23T17:19:29.337Z,151315.25
2022-12-23T17:22:04.655Z,151307.50
2022-12-23T17:24:34.762Z,151293.38
2022-12-23T17:27:15.554Z,151298.50
2022-12-23T17:29:45.920Z,151298.50
2022-12-23T17:32:17.848Z,151288.22
2022-12-23T17:34:48.383Z,151274.03
2022-12-23T17:37:25.762Z,151268.91
2022-12-23T17:39:55.821Z,151268.91
2022-12-23T17:42:28.657Z,151272.72
2022-12-23T17:44:58.692Z,151263.75
2022-12-23T17:47:30.458Z,151253.41
2022-12-23T17:50:00.621Z,151245.69
2022-12-23T17:52:30.785Z,151246.97
2022-12-23T17:55:03.712Z,151232.78
2022-12-23T17:57:36.600Z,151240.53
2022-12-23T18:00:08.058Z,151245.69
2022-12-23T18:02:42.558Z,151298.50
2022-12-23T18:05:23.448Z,151283.03
2022-12-23T18:07:54.801Z,151303.66
2022-12-23T18:10:28.217Z,151297.19
2022-12-23T18:13:04.573Z,151292.03
2022-12-23T18:15:38.332Z,151289.50
2022-12-23T18:18:17.905Z,151272.72
2022-12-23T18:20:55.386Z,151259.88
2022-12-23T18:23:28.291Z,151258.53
2022-12-23T18:25:59.439Z,151244.41
2022-12-23T18:28:35.078Z,151236.66
2022-12-23T18:31:05.956Z,151232.78
2022-12-23T18:33:36.129Z,151227.66
2022-12-23T18:36:06.626Z,151208.31
2022-12-23T18:38:36.700Z,151212.19
2022-12-23T18:41:06.782Z,151210.91
2022-12-23T18:43:39.466Z,151205.78
2022-12-23T18:46:09.708Z,151201.91
2022-12-23T18:48:39.905Z,151208.31
2022-12-23T18:51:10.718Z,151201.91
2022-12-23T18:53:41.788Z,151199.31
2022-12-23T18:56:15.781Z,151199.31
2022-12-23T18:58:48.526Z,151213.47
2022-12-23T19:01:20.136Z,151226.38
2022-12-23T19:03:50.562Z,151239.28
2022-12-23T19:06:20.761Z,151243.09
2022-12-23T19:08:51.176Z,151259.88
2022-12-23T19:11:23.616Z,151259.88
2022-12-23T19:13:56.579Z,151259.88
2022-12-23T19:16:27.041Z,151262.41
2022-12-23T19:18:57.209Z,151277.88
2022-12-23T19:21:27.320Z,151289.50
2022-12-23T19:23:58.421Z,151289.50
2022-12-23T19:26:28.555Z,151298.50
2022-12-23T19:29:01.280Z,151295.91
2022-12-23T19:31:34.303Z,151299.78
2022-12-23T19:34:11.096Z,151303.66
2022-12-23T19:36:48.298Z,151301.06
2022-12-23T19:39:22.059Z,151299.78
2022-12-23T19:41:54.538Z,151298.50
2022-12-23T19:44:28.352Z,151301.06
2022-12-23T19:46:59.599Z,151294.66
2022-12-23T19:49:30.068Z,151293.38
2022-12-23T19:52:01.453Z,151298.50
2022-12-23T19:54:32.127Z,151293.38
2022-12-23T19:57:02.399Z,151290.75
2022-12-23T19:59:35.861Z,151297.19
2022-12-23T20:02:09.055Z,151304.94
2022-12-23T20:04:45.333Z,151307.50
2022-12-23T20:07:16.155Z,151323.00
2022-12-23T20:09:47.479Z,151316.53
2022-12-23T20:12:19.473Z,151321.66
2022-12-23T20:14:52.397Z,151326.81
2022-12-23T20:17:22.872Z,151326.81
2022-12-23T20:19:53.182Z,151317.84
2022-12-23T20:22:24.663Z,151315.25
2022-12-23T20:24:55.247Z,151312.66
2022-12-23T20:27:28.218Z,151317.84
2022-12-23T20:30:01.921Z,151317.84
2022-12-23T20:32:32.065Z,151326.81
2022-12-23T20:35:02.395Z,151325.53
2022-12-23T20:37:32.469Z,151329.41
2022-12-23T20:40:05.330Z,151324.28
2022-12-23T20:42:35.475Z,151325.53
2022-12-23T20:45:09.805Z,151325.53
2022-12-23T20:47:40.197Z,151325.53
2022-12-23T20:50:12.132Z,151331.97
2022-12-23T20:52:42.345Z,151335.84
2022-12-23T20:55:13.763Z,151333.28
2022-12-23T20:57:43.965Z,151331.97
2022-12-23T21:00:22.703Z,151333.28
2022-12-23T21:02:53.989Z,151326.81
2022-12-23T21:05:25.074Z,151325.53
2022-12-23T21:07:57.296Z,151321.66
2022-12-23T21:10:30.329Z,151320.41
2022-12-23T21:13:01.945Z,151328.16
2022-12-23T21:15:35.542Z,151334.56
2022-12-23T21:18:05.795Z,151330.69
2022-12-23T21:20:35.868Z,151328.16
2022-12-23T21:23:08.773Z,151330.69
2022-12-23T21:25:38.820Z,151338.44
2022-12-23T21:28:09.115Z,151335.84
2022-12-23T21:30:42.677Z,151338.44
2022-12-23T21:33:13.879Z,151344.88
2022-12-23T21:35:44.171Z,151333.28
2022-12-23T21:38:14.614Z,151325.53
2022-12-23T21:40:44.779Z,151311.38
2022-12-23T21:43:15.091Z,151307.50
2022-12-23T21:45:48.374Z,151303.66
2022-12-23T21:48:19.520Z,151301.06
2022-12-23T21:50:56.876Z,151294.66
2022-12-23T21:53:27.020Z,151280.47
2022-12-23T21:56:02.706Z,151284.34
2022-12-23T21:58:32.903Z,151286.88
2022-12-23T22:01:10.694Z,151281.75
2022-12-23T22:03:41.403Z,151285.63
2022-12-23T22:06:14.742Z,151288.22
2022-12-23T22:08:45.540Z,151286.88
2022-12-23T22:11:18.344Z,151288.22
2022-12-23T22:13:49.136Z,151288.22
2022-12-23T22:16:24.652Z,151276.59
2022-12-23T22:18:55.800Z,151276.59
2022-12-23T22:21:28.626Z,151277.88
2022-12-23T22:23:59.319Z,151277.88
2022-12-23T22:26:32.862Z,151276.59
2022-12-23T22:29:06.249Z,151256.00
2022-12-23T22:31:44.815Z,151258.53
2022-12-23T22:34:17.566Z,151257.25
2022-12-23T22:36:51.178Z,151245.69
2022-12-23T22:39:23.289Z,151245.69
2022-12-23T22:41:55.305Z,151248.25
2022-12-23T22:44:25.599Z,151257.25
2022-12-23T22:46:59.104Z,151258.53
2022-12-23T22:49:30.055Z,151258.53
2022-12-23T22:52:01.364Z,151258.53
2022-12-23T22:54:32.075Z,151266.28
2022-12-23T22:57:02.219Z,151265.00
2022-12-23T22:59:33.104Z,151263.75
2022-12-23T23:02:07.677Z,151261.16
2022-12-23T23:04:37.915Z,151253.41
2022-12-23T23:07:09.851Z,151257.25
2022-12-23T23:09:41.395Z,151253.41
2022-12-23T23:12:20.277Z,151257.25
2022-12-23T23:14:56.774Z,151254.72
2022-12-23T23:17:32.068Z,151271.44
2022-12-23T23:20:03.259Z,151392.56
2022-12-23T23:22:33.325Z,151473.72
2022-12-23T23:25:03.426Z,151516.28
2022-12-23T23:27:33.580Z,151557.50
2022-12-23T23:30:03.903Z,151603.97
2022-12-23T23:32:36.764Z,151683.91
2022-12-23T23:35:10.880Z,151761.31
2022-12-23T23:37:41.292Z,151792.25
2022-12-23T23:40:13.408Z,151807.72
2022-12-23T23:42:44.454Z,151843.84
2022-12-23T23:45:15.877Z,151892.94
2022-12-23T23:47:50.007Z,151905.84
2022-12-23T23:50:21.383Z,151936.81
2022-12-23T23:52:52.922Z,151941.97
2022-12-23T23:55:23.000Z,151930.38
2022-12-23T23:57:53.024Z,151912.28
